Terminal Aerodrome Forecast
Issued by NWS Sterling, VA

Home | Current Version | Previous Version | Text Only | Print | Product List | Glossary On
Versions: 1 2 3 4 5 6 7 8 9 10 11 12 13 14 15 16 17 18 19 20 21 22 23
703
FTUS41 KLWX 032331
TAFBWI
TAF
KBWI 032331Z 0400/0506 09010KT P6SM -SHRA OVC040
     FM040200 07005KT P6SM -SHRA OVC010
     FM040500 08004KT P6SM OVC008
     FM040800 VRB03KT P6SM OVC003
     FM041500 06005KT P6SM OVC008
     FM042000 07006KT P6SM OVC015
     FM050200 06006KT P6SM OVC008=

USA.gov is the U.S. government's official web portal to all federal, state and local government web resources and services.